sensor_id;sensor_type;location;lat;lon;timestamp;P1;durP1;ratioP1;P2;durP2;ratioP2
13683;SDS011;6914;53.552;9.908;2024-01-16T00:00:01;5.27;;;4.77;;
13683;SDS011;6914;53.552;9.908;2024-01-16T00:02:28;6.50;;;5.63;;
13683;SDS011;6914;53.552;9.908;2024-01-16T00:04:55;7.03;;;6.10;;
13683;SDS011;6914;53.552;9.908;2024-01-16T00:07:22;6.33;;;5.93;;
13683;SDS011;6914;53.552;9.908;2024-01-16T00:09:50;15.03;;;6.20;;
13683;SDS011;6914;53.552;9.908;2024-01-16T00:12:20;7.40;;;5.87;;
13683;SDS011;6914;53.552;9.908;2024-01-16T00:14:47;7.07;;;6.37;;
13683;SDS011;6914;53.552;9.908;2024-01-16T00:17:14;5.70;;;5.30;;
13683;SDS011;6914;53.552;9.908;2024-01-16T00:19:41;10.67;;;6.00;;
13683;SDS011;6914;53.552;9.908;2024-01-16T00:22:09;10.40;;;7.00;;
13683;SDS011;6914;53.552;9.908;2024-01-16T00:24:36;11.53;;;6.20;;
13683;SDS011;6914;53.552;9.908;2024-01-16T00:27:03;7.07;;;6.57;;
13683;SDS011;6914;53.552;9.908;2024-01-16T00:29:31;7.67;;;6.23;;
13683;SDS011;6914;53.552;9.908;2024-01-16T00:31:59;9.20;;;7.80;;
13683;SDS011;6914;53.552;9.908;2024-01-16T00:34:26;8.73;;;7.97;;
13683;SDS011;6914;53.552;9.908;2024-01-16T00:36:53;8.20;;;7.50;;
13683;SDS011;6914;53.552;9.908;2024-01-16T00:39:20;8.03;;;7.33;;
13683;SDS011;6914;53.552;9.908;2024-01-16T00:41:48;8.87;;;7.97;;
13683;SDS011;6914;53.552;9.908;2024-01-16T00:44:15;12.60;;;7.50;;
13683;SDS011;6914;53.552;9.908;2024-01-16T00:46:43;9.47;;;7.30;;
13683;SDS011;6914;53.552;9.908;2024-01-16T00:49:11;15.33;;;8.00;;
13683;SDS011;6914;53.552;9.908;2024-01-16T00:51:38;7.57;;;6.83;;
13683;SDS011;6914;53.552;9.908;2024-01-16T00:54:05;7.13;;;6.53;;
13683;SDS011;6914;53.552;9.908;2024-01-16T00:56:33;7.80;;;6.83;;
13683;SDS011;6914;53.552;9.908;2024-01-16T00:59:00;8.07;;;6.67;;
13683;SDS011;6914;53.552;9.908;2024-01-16T01:01:27;7.40;;;6.73;;
13683;SDS011;6914;53.552;9.908;2024-01-16T01:03:56;7.03;;;6.33;;
13683;SDS011;6914;53.552;9.908;2024-01-16T01:06:23;8.53;;;6.43;;
13683;SDS011;6914;53.552;9.908;2024-01-16T01:08:50;6.50;;;5.93;;
13683;SDS011;6914;53.552;9.908;2024-01-16T01:11:17;6.90;;;6.40;;
13683;SDS011;6914;53.552;9.908;2024-01-16T01:13:44;6.33;;;5.83;;
13683;SDS011;6914;53.552;9.908;2024-01-16T01:16:11;6.33;;;5.83;;
13683;SDS011;6914;53.552;9.908;2024-01-16T01:18:38;7.40;;;6.70;;
13683;SDS011;6914;53.552;9.908;2024-01-16T01:21:07;6.23;;;5.43;;
13683;SDS011;6914;53.552;9.908;2024-01-16T01:23:34;6.30;;;5.77;;
13683;SDS011;6914;53.552;9.908;2024-01-16T01:26:01;10.60;;;6.83;;
13683;SDS011;6914;53.552;9.908;2024-01-16T01:28:28;6.57;;;5.80;;
13683;SDS011;6914;53.552;9.908;2024-01-16T01:30:56;7.00;;;6.30;;
13683;SDS011;6914;53.552;9.908;2024-01-16T01:33:23;7.80;;;7.00;;
13683;SDS011;6914;53.552;9.908;2024-01-16T01:35:50;7.23;;;6.40;;
13683;SDS011;6914;53.552;9.908;2024-01-16T01:38:19;7.67;;;7.00;;
13683;SDS011;6914;53.552;9.908;2024-01-16T01:40:46;6.13;;;5.67;;
13683;SDS011;6914;53.552;9.908;2024-01-16T01:43:16;10.33;;;6.30;;
13683;SDS011;6914;53.552;9.908;2024-01-16T01:45:45;6.73;;;6.13;;
13683;SDS011;6914;53.552;9.908;2024-01-16T01:48:14;6.80;;;5.40;;
13683;SDS011;6914;53.552;9.908;2024-01-16T01:50:41;8.07;;;6.80;;
13683;SDS011;6914;53.552;9.908;2024-01-16T01:53:08;6.83;;;6.20;;
13683;SDS011;6914;53.552;9.908;2024-01-16T01:55:37;7.27;;;6.67;;
13683;SDS011;6914;53.552;9.908;2024-01-16T01:58:04;7.07;;;6.20;;
13683;SDS011;6914;53.552;9.908;2024-01-16T02:00:31;9.73;;;7.67;;
13683;SDS011;6914;53.552;9.908;2024-01-16T02:02:59;7.70;;;6.90;;
13683;SDS011;6914;53.552;9.908;2024-01-16T02:05:26;7.20;;;6.60;;
13683;SDS011;6914;53.552;9.908;2024-01-16T02:07:54;8.03;;;6.90;;
13683;SDS011;6914;53.552;9.908;2024-01-16T02:10:21;13.50;;;8.13;;
13683;SDS011;6914;53.552;9.908;2024-01-16T02:12:49;9.77;;;7.50;;
13683;SDS011;6914;53.552;9.908;2024-01-16T02:15:17;9.57;;;7.80;;
13683;SDS011;6914;53.552;9.908;2024-01-16T02:17:44;9.40;;;8.10;;
13683;SDS011;6914;53.552;9.908;2024-01-16T02:20:11;7.80;;;7.10;;
13683;SDS011;6914;53.552;9.908;2024-01-16T02:22:38;10.10;;;9.17;;
13683;SDS011;6914;53.552;9.908;2024-01-16T02:25:07;9.80;;;7.87;;
13683;SDS011;6914;53.552;9.908;2024-01-16T02:27:35;12.70;;;9.53;;
13683;SDS011;6914;53.552;9.908;2024-01-16T02:30:02;17.13;;;10.30;;
13683;SDS011;6914;53.552;9.908;2024-01-16T02:32:29;13.60;;;10.10;;
13683;SDS011;6914;53.552;9.908;2024-01-16T02:34:57;9.70;;;8.80;;
13683;SDS011;6914;53.552;9.908;2024-01-16T02:37:24;16.33;;;9.80;;
13683;SDS011;6914;53.552;9.908;2024-01-16T02:39:51;12.43;;;10.63;;
13683;SDS011;6914;53.552;9.908;2024-01-16T02:42:19;10.27;;;9.00;;
13683;SDS011;6914;53.552;9.908;2024-01-16T02:44:47;13.63;;;10.67;;
13683;SDS011;6914;53.552;9.908;2024-01-16T02:47:14;14.00;;;10.20;;
13683;SDS011;6914;53.552;9.908;2024-01-16T02:49:41;12.30;;;10.80;;
13683;SDS011;6914;53.552;9.908;2024-01-16T02:52:08;13.97;;;10.77;;
13683;SDS011;6914;53.552;9.908;2024-01-16T02:54:35;15.23;;;10.93;;
13683;SDS011;6914;53.552;9.908;2024-01-16T02:57:02;13.63;;;10.67;;
13683;SDS011;6914;53.552;9.908;2024-01-16T02:59:31;16.40;;;11.27;;
13683;SDS011;6914;53.552;9.908;2024-01-16T03:01:58;11.93;;;10.73;;
13683;SDS011;6914;53.552;9.908;2024-01-16T03:04:25;20.57;;;10.03;;
13683;SDS011;6914;53.552;9.908;2024-01-16T03:06:53;14.00;;;11.03;;
13683;SDS011;6914;53.552;9.908;2024-01-16T03:09:20;12.30;;;9.60;;
13683;SDS011;6914;53.552;9.908;2024-01-16T03:11:47;13.63;;;10.63;;
13683;SDS011;6914;53.552;9.908;2024-01-16T03:14:14;12.77;;;11.17;;
13683;SDS011;6914;53.552;9.908;2024-01-16T03:16:43;12.03;;;10.80;;
13683;SDS011;6914;53.552;9.908;2024-01-16T03:19:11;25.37;;;11.90;;
13683;SDS011;6914;53.552;9.908;2024-01-16T03:21:38;13.00;;;10.17;;
13683;SDS011;6914;53.552;9.908;2024-01-16T03:24:06;14.20;;;10.67;;
13683;SDS011;6914;53.552;9.908;2024-01-16T03:26:35;14.93;;;10.60;;
13683;SDS011;6914;53.552;9.908;2024-01-16T03:29:03;11.60;;;10.50;;
13683;SDS011;6914;53.552;9.908;2024-01-16T03:31:31;14.30;;;10.90;;
13683;SDS011;6914;53.552;9.908;2024-01-16T03:33:59;11.77;;;10.60;;
13683;SDS011;6914;53.552;9.908;2024-01-16T03:36:27;17.50;;;10.03;;
13683;SDS011;6914;53.552;9.908;2024-01-16T03:38:55;12.83;;;10.67;;
13683;SDS011;6914;53.552;9.908;2024-01-16T03:41:22;12.30;;;9.87;;
13683;SDS011;6914;53.552;9.908;2024-01-16T03:43:49;15.43;;;11.10;;
13683;SDS011;6914;53.552;9.908;2024-01-16T03:46:16;13.50;;;10.87;;
13683;SDS011;6914;53.552;9.908;2024-01-16T03:48:43;14.63;;;10.40;;
13683;SDS011;6914;53.552;9.908;2024-01-16T03:51:12;13.30;;;10.77;;
13683;SDS011;6914;53.552;9.908;2024-01-16T03:53:40;13.73;;;10.87;;
13683;SDS011;6914;53.552;9.908;2024-01-16T03:56:08;11.17;;;9.97;;
13683;SDS011;6914;53.552;9.908;2024-01-16T03:58:35;18.30;;;11.50;;
13683;SDS011;6914;53.552;9.908;2024-01-16T04:01:02;15.63;;;11.70;;
13683;SDS011;6914;53.552;9.908;2024-01-16T04:03:30;15.33;;;11.77;;
13683;SDS011;6914;53.552;9.908;2024-01-16T04:05:57;14.70;;;11.73;;
13683;SDS011;6914;53.552;9.908;2024-01-16T04:08:26;14.00;;;11.43;;
13683;SDS011;6914;53.552;9.908;2024-01-16T04:10:53;13.40;;;12.00;;
13683;SDS011;6914;53.552;9.908;2024-01-16T04:13:20;18.40;;;12.27;;
13683;SDS011;6914;53.552;9.908;2024-01-16T04:15:47;20.07;;;12.97;;
13683;SDS011;6914;53.552;9.908;2024-01-16T04:18:14;17.93;;;11.57;;
13683;SDS011;6914;53.552;9.908;2024-01-16T04:20:42;13.43;;;10.53;;
13683;SDS011;6914;53.552;9.908;2024-01-16T04:23:09;14.87;;;11.33;;
13683;SDS011;6914;53.552;9.908;2024-01-16T04:25:38;13.13;;;11.47;;
13683;SDS011;6914;53.552;9.908;2024-01-16T04:28:05;13.13;;;11.70;;
13683;SDS011;6914;53.552;9.908;2024-01-16T04:30:32;17.83;;;11.60;;
13683;SDS011;6914;53.552;9.908;2024-01-16T04:33:00;12.93;;;10.40;;
13683;SDS011;6914;53.552;9.908;2024-01-16T04:35:27;16.53;;;10.50;;
13683;SDS011;6914;53.552;9.908;2024-01-16T04:37:54;12.57;;;9.27;;
13683;SDS011;6914;53.552;9.908;2024-01-16T04:40:22;20.50;;;9.23;;
13683;SDS011;6914;53.552;9.908;2024-01-16T04:42:50;10.37;;;8.47;;
13683;SDS011;6914;53.552;9.908;2024-01-16T04:45:17;9.43;;;8.00;;
13683;SDS011;6914;53.552;9.908;2024-01-16T04:47:44;11.77;;;8.40;;
13683;SDS011;6914;53.552;9.908;2024-01-16T04:50:12;10.53;;;9.17;;
13683;SDS011;6914;53.552;9.908;2024-01-16T04:52:39;9.80;;;8.63;;
13683;SDS011;6914;53.552;9.908;2024-01-16T04:55:06;12.00;;;8.00;;
13683;SDS011;6914;53.552;9.908;2024-01-16T04:57:33;8.90;;;8.00;;
13683;SDS011;6914;53.552;9.908;2024-01-16T05:00:02;11.00;;;8.50;;
13683;SDS011;6914;53.552;9.908;2024-01-16T05:02:31;8.00;;;7.20;;
13683;SDS011;6914;53.552;9.908;2024-01-16T05:04:59;9.80;;;8.20;;
13683;SDS011;6914;53.552;9.908;2024-01-16T05:07:26;8.93;;;7.50;;
13683;SDS011;6914;53.552;9.908;2024-01-16T05:09:53;11.43;;;6.13;;
13683;SDS011;6914;53.552;9.908;2024-01-16T05:12:20;6.20;;;5.60;;
13683;SDS011;6914;53.552;9.908;2024-01-16T05:14:48;6.50;;;6.00;;
13683;SDS011;6914;53.552;9.908;2024-01-16T05:17:16;6.57;;;5.70;;
13683;SDS011;6914;53.552;9.908;2024-01-16T05:19:43;6.70;;;6.10;;
13683;SDS011;6914;53.552;9.908;2024-01-16T05:22:10;5.47;;;5.07;;
13683;SDS011;6914;53.552;9.908;2024-01-16T05:24:37;6.07;;;5.47;;
13683;SDS011;6914;53.552;9.908;2024-01-16T05:27:05;3.67;;;3.57;;
13683;SDS011;6914;53.552;9.908;2024-01-16T05:29:32;4.23;;;3.80;;
13683;SDS011;6914;53.552;9.908;2024-01-16T05:31:59;4.57;;;3.30;;
13683;SDS011;6914;53.552;9.908;2024-01-16T05:34:28;4.17;;;3.13;;
13683;SDS011;6914;53.552;9.908;2024-01-16T05:36:55;3.70;;;3.40;;
13683;SDS011;6914;53.552;9.908;2024-01-16T05:39:23;3.20;;;2.90;;
13683;SDS011;6914;53.552;9.908;2024-01-16T05:41:50;9.23;;;2.80;;
13683;SDS011;6914;53.552;9.908;2024-01-16T05:44:17;2.93;;;2.63;;
13683;SDS011;6914;53.552;9.908;2024-01-16T05:46:44;4.17;;;2.83;;
13683;SDS011;6914;53.552;9.908;2024-01-16T05:49:11;6.20;;;2.50;;
13683;SDS011;6914;53.552;9.908;2024-01-16T05:51:40;5.00;;;2.63;;
13683;SDS011;6914;53.552;9.908;2024-01-16T05:54:07;1.97;;;1.87;;
13683;SDS011;6914;53.552;9.908;2024-01-16T05:56:34;1.93;;;1.70;;
13683;SDS011;6914;53.552;9.908;2024-01-16T05:59:02;2.00;;;1.13;;
13683;SDS011;6914;53.552;9.908;2024-01-16T06:01:30;5.70;;;2.40;;
13683;SDS011;6914;53.552;9.908;2024-01-16T06:03:58;2.20;;;2.00;;
13683;SDS011;6914;53.552;9.908;2024-01-16T06:06:25;2.50;;;2.30;;
13683;SDS011;6914;53.552;9.908;2024-01-16T06:08:54;1.67;;;1.57;;
13683;SDS011;6914;53.552;9.908;2024-01-16T06:11:29;10.20;;;2.57;;
13683;SDS011;6914;53.552;9.908;2024-01-16T06:13:57;2.50;;;2.30;;
13683;SDS011;6914;53.552;9.908;2024-01-16T06:16:24;2.93;;;2.10;;
13683;SDS011;6914;53.552;9.908;2024-01-16T06:18:51;3.23;;;2.80;;
13683;SDS011;6914;53.552;9.908;2024-01-16T06:21:18;2.20;;;2.10;;
13683;SDS011;6914;53.552;9.908;2024-01-16T06:23:46;2.70;;;2.33;;
13683;SDS011;6914;53.552;9.908;2024-01-16T06:26:14;9.03;;;2.60;;
13683;SDS011;6914;53.552;9.908;2024-01-16T06:28:41;9.43;;;3.23;;
13683;SDS011;6914;53.552;9.908;2024-01-16T06:31:08;14.20;;;3.73;;
13683;SDS011;6914;53.552;9.908;2024-01-16T06:33:36;11.57;;;2.77;;
13683;SDS011;6914;53.552;9.908;2024-01-16T06:36:03;2.93;;;2.73;;
13683;SDS011;6914;53.552;9.908;2024-01-16T06:38:31;7.80;;;2.83;;
13683;SDS011;6914;53.552;9.908;2024-01-16T06:40:58;9.30;;;2.87;;
13683;SDS011;6914;53.552;9.908;2024-01-16T06:43:27;4.43;;;3.00;;
13683;SDS011;6914;53.552;9.908;2024-01-16T06:45:54;5.33;;;3.50;;
13683;SDS011;6914;53.552;9.908;2024-01-16T06:48:21;6.17;;;2.90;;
13683;SDS011;6914;53.552;9.908;2024-01-16T06:50:48;6.63;;;3.17;;
13683;SDS011;6914;53.552;9.908;2024-01-16T06:53:16;2.93;;;2.50;;
13683;SDS011;6914;53.552;9.908;2024-01-16T06:55:43;12.17;;;2.67;;
13683;SDS011;6914;53.552;9.908;2024-01-16T06:58:10;3.70;;;3.40;;
13683;SDS011;6914;53.552;9.908;2024-01-16T07:00:38;14.80;;;4.40;;
13683;SDS011;6914;53.552;9.908;2024-01-16T07:03:06;7.83;;;3.70;;
13683;SDS011;6914;53.552;9.908;2024-01-16T07:05:33;8.67;;;3.73;;
13683;SDS011;6914;53.552;9.908;2024-01-16T07:08:01;5.90;;;3.23;;
13683;SDS011;6914;53.552;9.908;2024-01-16T07:10:28;6.60;;;3.00;;
13683;SDS011;6914;53.552;9.908;2024-01-16T07:12:56;6.97;;;3.43;;
13683;SDS011;6914;53.552;9.908;2024-01-16T07:15:24;3.43;;;3.13;;
13683;SDS011;6914;53.552;9.908;2024-01-16T07:17:52;4.80;;;3.60;;
13683;SDS011;6914;53.552;9.908;2024-01-16T07:20:19;6.77;;;3.77;;
13683;SDS011;6914;53.552;9.908;2024-01-16T07:22:46;4.40;;;3.00;;
13683;SDS011;6914;53.552;9.908;2024-01-16T07:25:14;4.97;;;3.30;;
13683;SDS011;6914;53.552;9.908;2024-01-16T07:27:41;5.13;;;3.30;;
13683;SDS011;6914;53.552;9.908;2024-01-16T07:30:11;12.33;;;4.03;;
13683;SDS011;6914;53.552;9.908;2024-01-16T07:32:38;3.53;;;3.30;;
13683;SDS011;6914;53.552;9.908;2024-01-16T07:35:07;7.83;;;3.47;;
13683;SDS011;6914;53.552;9.908;2024-01-16T07:37:34;10.97;;;3.60;;
13683;SDS011;6914;53.552;9.908;2024-01-16T07:40:01;11.50;;;3.80;;
13683;SDS011;6914;53.552;9.908;2024-01-16T07:42:31;6.10;;;4.20;;
13683;SDS011;6914;53.552;9.908;2024-01-16T07:44:59;4.90;;;3.50;;
13683;SDS011;6914;53.552;9.908;2024-01-16T07:47:29;10.13;;;4.20;;
13683;SDS011;6914;53.552;9.908;2024-01-16T07:49:58;6.40;;;3.60;;
13683;SDS011;6914;53.552;9.908;2024-01-16T07:52:26;6.70;;;3.10;;
13683;SDS011;6914;53.552;9.908;2024-01-16T07:54:54;6.87;;;3.80;;
13683;SDS011;6914;53.552;9.908;2024-01-16T07:57:21;6.57;;;4.03;;
13683;SDS011;6914;53.552;9.908;2024-01-16T07:59:48;4.83;;;4.40;;
13683;SDS011;6914;53.552;9.908;2024-01-16T08:02:15;3.53;;;3.23;;
13683;SDS011;6914;53.552;9.908;2024-01-16T08:04:46;13.47;;;4.50;;
13683;SDS011;6914;53.552;9.908;2024-01-16T08:07:20;3.90;;;3.70;;
13683;SDS011;6914;53.552;9.908;2024-01-16T08:09:51;10.50;;;4.10;;
13683;SDS011;6914;53.552;9.908;2024-01-16T08:12:20;6.90;;;3.87;;
13683;SDS011;6914;53.552;9.908;2024-01-16T08:14:51;3.13;;;2.50;;
13683;SDS011;6914;53.552;9.908;2024-01-16T08:17:26;8.60;;;4.10;;
13683;SDS011;6914;53.552;9.908;2024-01-16T08:19:53;4.50;;;3.73;;
13683;SDS011;6914;53.552;9.908;2024-01-16T08:22:25;3.57;;;3.27;;
13683;SDS011;6914;53.552;9.908;2024-01-16T08:25:01;12.30;;;3.87;;
13683;SDS011;6914;53.552;9.908;2024-01-16T08:27:32;15.00;;;3.93;;
13683;SDS011;6914;53.552;9.908;2024-01-16T08:29:59;8.53;;;5.47;;
13683;SDS011;6914;53.552;9.908;2024-01-16T08:32:28;6.20;;;5.03;;
13683;SDS011;6914;53.552;9.908;2024-01-16T08:34:56;8.87;;;4.00;;
13683;SDS011;6914;53.552;9.908;2024-01-16T08:37:23;5.23;;;4.20;;
13683;SDS011;6914;53.552;9.908;2024-01-16T08:39:51;11.50;;;4.87;;
13683;SDS011;6914;53.552;9.908;2024-01-16T08:42:19;8.10;;;4.63;;
13683;SDS011;6914;53.552;9.908;2024-01-16T08:44:46;7.50;;;3.87;;
13683;SDS011;6914;53.552;9.908;2024-01-16T08:47:14;8.77;;;4.13;;
13683;SDS011;6914;53.552;9.908;2024-01-16T08:49:41;7.03;;;4.77;;
13683;SDS011;6914;53.552;9.908;2024-01-16T08:52:09;4.83;;;4.43;;
13683;SDS011;6914;53.552;9.908;2024-01-16T08:54:36;17.20;;;4.90;;
13683;SDS011;6914;53.552;9.908;2024-01-16T08:57:04;10.53;;;4.73;;
13683;SDS011;6914;53.552;9.908;2024-01-16T08:59:32;10.63;;;5.93;;
13683;SDS011;6914;53.552;9.908;2024-01-16T09:02:00;13.40;;;6.20;;
13683;SDS011;6914;53.552;9.908;2024-01-16T09:04:27;6.40;;;5.00;;
13683;SDS011;6914;53.552;9.908;2024-01-16T09:06:54;10.60;;;6.30;;
13683;SDS011;6914;53.552;9.908;2024-01-16T09:09:21;16.83;;;5.30;;
13683;SDS011;6914;53.552;9.908;2024-01-16T09:11:48;9.37;;;4.70;;
13683;SDS011;6914;53.552;9.908;2024-01-16T09:14:16;13.73;;;5.87;;
13683;SDS011;6914;53.552;9.908;2024-01-16T09:16:46;7.97;;;5.47;;
13683;SDS011;6914;53.552;9.908;2024-01-16T09:19:13;8.47;;;4.47;;
13683;SDS011;6914;53.552;9.908;2024-01-16T09:21:41;10.47;;;4.60;;
13683;SDS011;6914;53.552;9.908;2024-01-16T09:24:08;3.00;;;2.80;;
13683;SDS011;6914;53.552;9.908;2024-01-16T09:26:37;4.37;;;4.07;;
13683;SDS011;6914;53.552;9.908;2024-01-16T09:29:04;14.27;;;4.07;;
13683;SDS011;6914;53.552;9.908;2024-01-16T09:31:32;8.70;;;4.27;;
13683;SDS011;6914;53.552;9.908;2024-01-16T09:34:00;17.77;;;2.87;;
13683;SDS011;6914;53.552;9.908;2024-01-16T09:36:28;8.13;;;3.80;;
13683;SDS011;6914;53.552;9.908;2024-01-16T09:38:55;3.80;;;3.07;;
13683;SDS011;6914;53.552;9.908;2024-01-16T09:41:22;11.07;;;2.77;;
13683;SDS011;6914;53.552;9.908;2024-01-16T09:43:51;2.63;;;2.43;;
13683;SDS011;6914;53.552;9.908;2024-01-16T09:46:18;2.77;;;2.57;;
13683;SDS011;6914;53.552;9.908;2024-01-16T09:48:46;2.30;;;2.20;;
13683;SDS011;6914;53.552;9.908;2024-01-16T09:51:17;3.80;;;2.47;;
13683;SDS011;6914;53.552;9.908;2024-01-16T09:53:44;4.37;;;2.90;;
13683;SDS011;6914;53.552;9.908;2024-01-16T09:56:13;5.07;;;2.30;;
13683;SDS011;6914;53.552;9.908;2024-01-16T09:58:41;14.67;;;3.33;;
13683;SDS011;6914;53.552;9.908;2024-01-16T10:01:10;1.90;;;1.80;;
13683;SDS011;6914;53.552;9.908;2024-01-16T10:03:38;5.90;;;2.30;;
13683;SDS011;6914;53.552;9.908;2024-01-16T10:06:06;8.77;;;1.73;;
13683;SDS011;6914;53.552;9.908;2024-01-16T10:08:35;10.80;;;2.13;;
13683;SDS011;6914;53.552;9.908;2024-01-16T10:11:02;8.90;;;2.00;;
13683;SDS011;6914;53.552;9.908;2024-01-16T10:13:30;4.87;;;2.23;;
13683;SDS011;6914;53.552;9.908;2024-01-16T10:15:58;2.17;;;1.73;;
13683;SDS011;6914;53.552;9.908;2024-01-16T10:18:27;2.80;;;2.43;;
13683;SDS011;6914;53.552;9.908;2024-01-16T10:20:54;2.80;;;1.73;;
13683;SDS011;6914;53.552;9.908;2024-01-16T10:23:22;7.23;;;2.10;;
13683;SDS011;6914;53.552;9.908;2024-01-16T10:26:05;6.57;;;1.90;;
13683;SDS011;6914;53.552;9.908;2024-01-16T10:28:33;7.33;;;2.70;;
13683;SDS011;6914;53.552;9.908;2024-01-16T10:31:03;13.70;;;2.97;;
13683;SDS011;6914;53.552;9.908;2024-01-16T10:33:31;2.00;;;1.90;;
13683;SDS011;6914;53.552;9.908;2024-01-16T10:36:07;8.87;;;2.80;;
13683;SDS011;6914;53.552;9.908;2024-01-16T10:38:35;1.57;;;1.47;;
13683;SDS011;6914;53.552;9.908;2024-01-16T10:41:08;2.73;;;2.20;;
13683;SDS011;6914;53.552;9.908;2024-01-16T10:43:35;4.03;;;2.10;;
13683;SDS011;6914;53.552;9.908;2024-01-16T10:46:09;4.90;;;2.07;;
13683;SDS011;6914;53.552;9.908;2024-01-16T10:48:37;8.20;;;1.90;;
13683;SDS011;6914;53.552;9.908;2024-01-16T10:51:05;7.23;;;2.30;;
13683;SDS011;6914;53.552;9.908;2024-01-16T10:53:33;4.53;;;1.80;;
13683;SDS011;6914;53.552;9.908;2024-01-16T10:56:01;4.93;;;1.43;;
13683;SDS011;6914;53.552;9.908;2024-01-16T10:58:30;3.23;;;2.00;;
13683;SDS011;6914;53.552;9.908;2024-01-16T11:01:00;2.53;;;2.00;;
13683;SDS011;6914;53.552;9.908;2024-01-16T11:03:29;4.13;;;1.83;;
13683;SDS011;6914;53.552;9.908;2024-01-16T11:05:59;9.13;;;2.30;;
13683;SDS011;6914;53.552;9.908;2024-01-16T11:08:28;5.63;;;2.10;;
13683;SDS011;6914;53.552;9.908;2024-01-16T11:10:58;3.00;;;1.57;;
13683;SDS011;6914;53.552;9.908;2024-01-16T11:13:26;2.40;;;1.70;;
13683;SDS011;6914;53.552;9.908;2024-01-16T11:15:54;5.30;;;2.67;;
13683;SDS011;6914;53.552;9.908;2024-01-16T11:18:22;5.13;;;2.10;;
13683;SDS011;6914;53.552;9.908;2024-01-16T11:20:51;3.47;;;1.50;;
13683;SDS011;6914;53.552;9.908;2024-01-16T11:23:19;1.77;;;1.43;;
13683;SDS011;6914;53.552;9.908;2024-01-16T11:25:46;7.60;;;1.90;;
13683;SDS011;6914;53.552;9.908;2024-01-16T11:28:14;5.93;;;1.80;;
13683;SDS011;6914;53.552;9.908;2024-01-16T11:30:42;3.17;;;1.60;;
13683;SDS011;6914;53.552;9.908;2024-01-16T11:35:53;1.80;;;1.70;;
13683;SDS011;6914;53.552;9.908;2024-01-16T11:38:20;1.73;;;1.50;;
13683;SDS011;6914;53.552;9.908;2024-01-16T11:40:47;7.17;;;1.47;;
13683;SDS011;6914;53.552;9.908;2024-01-16T11:46:01;9.73;;;2.50;;
13683;SDS011;6914;53.552;9.908;2024-01-16T11:48:28;12.77;;;1.90;;
13683;SDS011;6914;53.552;9.908;2024-01-16T11:50:57;6.17;;;2.43;;
13683;SDS011;6914;53.552;9.908;2024-01-16T11:53:37;6.93;;;1.93;;
13683;SDS011;6914;53.552;9.908;2024-01-16T11:58:53;5.07;;;2.20;;
13683;SDS011;6914;53.552;9.908;2024-01-16T12:01:25;3.13;;;1.70;;
13683;SDS011;6914;53.552;9.908;2024-01-16T12:04:01;6.87;;;1.90;;
13683;SDS011;6914;53.552;9.908;2024-01-16T12:06:30;16.83;;;2.27;;
13683;SDS011;6914;53.552;9.908;2024-01-16T12:09:10;10.33;;;2.13;;
13683;SDS011;6914;53.552;9.908;2024-01-16T12:11:38;4.33;;;1.60;;
13683;SDS011;6914;53.552;9.908;2024-01-16T12:14:05;8.33;;;2.23;;
13683;SDS011;6914;53.552;9.908;2024-01-16T12:16:32;6.07;;;1.97;;
13683;SDS011;6914;53.552;9.908;2024-01-16T12:19:04;8.97;;;2.77;;
13683;SDS011;6914;53.552;9.908;2024-01-16T12:24:03;2.90;;;1.83;;
13683;SDS011;6914;53.552;9.908;2024-01-16T12:26:30;11.63;;;2.10;;
13683;SDS011;6914;53.552;9.908;2024-01-16T12:28:58;8.53;;;2.37;;
13683;SDS011;6914;53.552;9.908;2024-01-16T12:31:25;4.63;;;2.33;;
13683;SDS011;6914;53.552;9.908;2024-01-16T12:33:52;14.33;;;2.30;;
13683;SDS011;6914;53.552;9.908;2024-01-16T12:36:19;8.30;;;2.40;;
13683;SDS011;6914;53.552;9.908;2024-01-16T12:38:53;7.97;;;2.20;;
13683;SDS011;6914;53.552;9.908;2024-01-16T12:41:23;10.77;;;2.37;;
13683;SDS011;6914;53.552;9.908;2024-01-16T12:43:50;9.63;;;2.23;;
13683;SDS011;6914;53.552;9.908;2024-01-16T12:46:18;3.50;;;2.20;;
13683;SDS011;6914;53.552;9.908;2024-01-16T12:48:45;2.50;;;2.30;;
13683;SDS011;6914;53.552;9.908;2024-01-16T12:51:19;8.37;;;2.73;;
13683;SDS011;6914;53.552;9.908;2024-01-16T12:53:47;8.17;;;1.70;;
13683;SDS011;6914;53.552;9.908;2024-01-16T12:56:18;3.10;;;2.87;;
13683;SDS011;6914;53.552;9.908;2024-01-16T12:58:47;6.50;;;2.17;;
13683;SDS011;6914;53.552;9.908;2024-01-16T13:01:20;5.90;;;2.47;;
13683;SDS011;6914;53.552;9.908;2024-01-16T13:03:48;2.90;;;2.03;;
13683;SDS011;6914;53.552;9.908;2024-01-16T13:06:17;5.93;;;1.90;;
13683;SDS011;6914;53.552;9.908;2024-01-16T13:08:44;5.57;;;2.47;;
13683;SDS011;6914;53.552;9.908;2024-01-16T13:11:12;5.10;;;2.30;;
13683;SDS011;6914;53.552;9.908;2024-01-16T13:13:41;5.43;;;2.40;;
13683;SDS011;6914;53.552;9.908;2024-01-16T13:16:09;4.13;;;2.30;;
13683;SDS011;6914;53.552;9.908;2024-01-16T13:18:36;8.80;;;2.00;;
13683;SDS011;6914;53.552;9.908;2024-01-16T13:21:04;2.97;;;1.63;;
13683;SDS011;6914;53.552;9.908;2024-01-16T13:23:31;15.50;;;2.40;;
13683;SDS011;6914;53.552;9.908;2024-01-16T13:25:58;7.23;;;2.47;;
13683;SDS011;6914;53.552;9.908;2024-01-16T13:28:27;2.30;;;2.20;;
13683;SDS011;6914;53.552;9.908;2024-01-16T13:30:55;5.33;;;2.00;;
13683;SDS011;6914;53.552;9.908;2024-01-16T13:33:23;11.03;;;3.03;;
13683;SDS011;6914;53.552;9.908;2024-01-16T13:35:52;4.63;;;2.07;;
13683;SDS011;6914;53.552;9.908;2024-01-16T13:38:21;5.83;;;3.13;;
13683;SDS011;6914;53.552;9.908;2024-01-16T13:40:48;10.87;;;2.80;;
13683;SDS011;6914;53.552;9.908;2024-01-16T13:43:16;4.93;;;3.93;;
13683;SDS011;6914;53.552;9.908;2024-01-16T13:45:43;5.83;;;2.47;;
13683;SDS011;6914;53.552;9.908;2024-01-16T13:48:14;3.30;;;2.50;;
13683;SDS011;6914;53.552;9.908;2024-01-16T13:50:43;3.97;;;3.17;;
13683;SDS011;6914;53.552;9.908;2024-01-16T13:53:10;12.90;;;3.47;;
13683;SDS011;6914;53.552;9.908;2024-01-16T13:55:39;4.53;;;4.13;;
13683;SDS011;6914;53.552;9.908;2024-01-16T13:58:06;7.53;;;3.97;;
13683;SDS011;6914;53.552;9.908;2024-01-16T14:00:33;7.07;;;4.70;;
13683;SDS011;6914;53.552;9.908;2024-01-16T14:03:02;7.87;;;4.30;;
13683;SDS011;6914;53.552;9.908;2024-01-16T14:05:31;11.10;;;5.67;;
13683;SDS011;6914;53.552;9.908;2024-01-16T14:08:00;10.60;;;6.33;;
13683;SDS011;6914;53.552;9.908;2024-01-16T14:10:27;13.43;;;6.70;;
13683;SDS011;6914;53.552;9.908;2024-01-16T14:12:54;7.80;;;7.03;;
13683;SDS011;6914;53.552;9.908;2024-01-16T14:15:22;11.27;;;7.37;;
13683;SDS011;6914;53.552;9.908;2024-01-16T14:17:49;13.90;;;7.70;;
13683;SDS011;6914;53.552;9.908;2024-01-16T14:20:17;7.37;;;6.67;;
13683;SDS011;6914;53.552;9.908;2024-01-16T14:22:48;7.67;;;6.70;;
13683;SDS011;6914;53.552;9.908;2024-01-16T14:25:16;6.60;;;6.10;;
13683;SDS011;6914;53.552;9.908;2024-01-16T14:27:45;8.77;;;7.00;;
13683;SDS011;6914;53.552;9.908;2024-01-16T14:30:12;16.53;;;6.27;;
13683;SDS011;6914;53.552;9.908;2024-01-16T14:32:40;8.33;;;5.70;;
13683;SDS011;6914;53.552;9.908;2024-01-16T14:35:10;8.20;;;5.07;;
13683;SDS011;6914;53.552;9.908;2024-01-16T14:37:39;9.60;;;4.70;;
13683;SDS011;6914;53.552;9.908;2024-01-16T14:40:06;4.80;;;4.30;;
13683;SDS011;6914;53.552;9.908;2024-01-16T14:42:39;17.30;;;4.50;;
13683;SDS011;6914;53.552;9.908;2024-01-16T14:45:07;9.80;;;4.67;;
13683;SDS011;6914;53.552;9.908;2024-01-16T14:47:36;13.73;;;5.33;;
13683;SDS011;6914;53.552;9.908;2024-01-16T14:50:04;8.37;;;5.73;;
13683;SDS011;6914;53.552;9.908;2024-01-16T14:52:32;9.80;;;6.10;;
13683;SDS011;6914;53.552;9.908;2024-01-16T14:54:59;6.53;;;4.97;;
13683;SDS011;6914;53.552;9.908;2024-01-16T14:57:27;19.13;;;4.97;;
13683;SDS011;6914;53.552;9.908;2024-01-16T14:59:57;16.00;;;5.53;;
13683;SDS011;6914;53.552;9.908;2024-01-16T15:02:24;9.17;;;5.13;;
13683;SDS011;6914;53.552;9.908;2024-01-16T15:04:51;9.73;;;5.70;;
13683;SDS011;6914;53.552;9.908;2024-01-16T15:07:17;4.27;;;3.93;;
13683;SDS011;6914;53.552;9.908;2024-01-16T15:09:44;6.00;;;5.17;;